Pebworth, Kentucky
Current Conditions -  °F | °C
As of 4:53 AM on Friday 24 Oct 2014 (Local Time) from KJKL Reporting Station
Clear Clear  
Wind Chill: 44°   Ceiling: Unl
Heat Index: 44°   Visibility: 10mi
Dew Point: 40°   Wind: 0mph
Humidity: 85%   Direction: NA
Pressure: 30.12"   Gusts: NA
Location:  37.4818°N, 83.6652°W
Report Text: KJKL 240853Z AUTO 00000KT 10SM CLR 07/04 A3012 RMK AO2 SLP197 T00670044 51002
Loading
Personal Weather Stations






























Interactive Weather Map
Tropical Storm Tracking
New forecast layout! Learn more

10-Day Weather Forecast

Advertisements
Track Severe Weather on mobile